Date,TemperatureHighF,TemperatureAvgF,TemperatureLowF,DewpointHighF,DewpointAvgF,DewpointLowF,HumidityHigh,HumidityAvg,HumidityLow,PressureMaxIn,PressureMinIn,WindSpeedMaxMPH,WindSpeedAvgMPH,GustSpeedMaxMPH,PrecipitationSumIn
2013-1-1,19,4,-17,10,-8,-32,67,58,45,30.32,30.08,12,4,12,0.00
2013-1-2,24,17,12,16,9,3,75,69,62,30.17,29.99,17,5,17,0.00
2013-1-3,18,10,2,4,-1,-8,69,60,46,30.34,30.15,14,6,14,0.00
2013-1-4,32,18,6,15,6,-4,72,60,47,30.18,30.07,13,4,13,0.00
2013-1-5,28,14,4,10,2,-5,72,61,45,30.13,29.92,12,4,12,0.00
2013-1-6,24,14,6,11,3,-6,69,61,51,30.29,30.03,17,5,17,0.00
2013-1-7,42,27,18,26,16,9,75,64,52,30.03,29.94,22,6,22,0.00
2013-1-8,35,24,12,24,16,5,75,69,57,30.03,29.81,14,4,14,0.00
2013-1-9,32,30,28,24,22,19,75,72,69,30.05,29.99,16,6,16,0.00
2013-1-10,41,35,30,29,25,20,83,67,47,30.32,29.78,14,5,14,0.20
2013-1-11,39,36,34,35,31,29,86,82,80,29.77,29.45,14,5,14,0.04
2013-1-12,34,12,2,29,1,-10,80,60,47,30.15,29.47,12,0,14,0.00
2013-1-13,10,3,-1,-5,-10,-14,64,54,43,30.29,30.11,0,0,0,0.00
2013-1-14,19,7,1,2,-5,-10,66,57,36,30.46,30.29,0,0,0,0.00
2013-1-15,33,23,9,15,10,-1,67,57,42,30.32,29.89,21,6,21,0.00
2013-1-16,39,24,4,31,15,-8,80,69,56,30.29,29.73,18,6,20,0.02
2013-1-17,26,10,-2,8,-3,-14,65,54,41,30.44,30.28,9,4,10,0.00
2013-1-18,44,31,17,30,21,7,78,68,57,30.30,29.81,17,5,17,0.00
2013-1-19,41,23,0,30,12,-15,81,63,43,30.32,29.76,26,9,30,0.00
2013-1-20,12,2,-5,-6,-14,-20,55,47,41,30.46,30.32,16,7,16,0.00
2013-1-21,-2,-8,-12,-20,-24,-29,51,43,33,30.41,30.34,17,7,18,0.00
2013-1-22,6,-5,-14,-9,-20,-27,55,47,32,30.43,30.26,8,2,8,0.00
2013-1-23,16,6,-5,2,-10,-25,65,48,31,30.63,30.19,20,5,20,0.00
2013-1-24,14,3,-6,0,-17,-26,55,37,32,30.68,30.19,17,5,17,0.00
2013-1-25,19,11,-1,8,-4,-14,61,51,42,30.35,30.02,30,8,30,0.00
2013-1-26,30,12,-5,8,-4,-17,58,49,31,30.37,30.12,14,3,14,0.00
2013-1-27,32,30,25,26,19,8,80,66,47,30.12,29.85,14,3,14,0.11
2013-1-28,37,32,30,29,27,25,83,80,72,29.94,29.68,9,2,9,0.25
2013-1-29,37,32,26,29,25,18,83,75,66,29.82,29.58,11,4,11,0.09
2013-1-30,26,15,3,18,4,-8,70,61,47,29.86,29.74,17,8,17,0.00
2013-1-31,3,-4,-11,-8,-19,-27,58,47,41,30.34,29.86,21,10,21,0.00
2013-2-1,10,-2,-17,0,-18,-32,63,47,29,30.36,30.07,13,4,13,0.00
2013-2-2,15,6,-1,2,-6,-14,67,55,33,30.22,30.00,10,3,10,0.00
2013-2-3,18,11,3,3,-1,-8,68,58,47,30.15,29.99,14,4,14,0.00
2013-2-4,23,9,-5,8,-5,-15,70,53,26,30.12,29.78,14,3,14,0.00
2013-2-5,37,26,14,24,16,3,79,66,51,30.07,29.73,18,6,18,0.08
2013-2-6,38,18,-4,24,7,-15,73,63,51,30.14,29.93,6,3,6,0.05
2013-2-7,27,24,16,18,15,8,76,69,65,30.30,30.02,8,4,8,0.00
2013-2-8,33,24,19,16,14,9,71,64,49,30.40,30.23,14,4,14,0.00
2013-2-9,34,28,25,25,20,16,77,72,68,30.24,29.94,19,7,20,0.00
2013-2-10,34,31,28,28,25,20,82,79,72,29.95,29.34,20,2,20,0.01
2013-2-11,28,22,14,21,13,4,75,66,59,30.11,29.45,0,0,0,0.00
2013-2-12,39,23,13,24,12,4,69,63,50,30.11,29.87,13,2,13,0.21
2013-2-13,41,27,10,28,18,1,80,69,52,29.87,29.63,11,4,11,0.12
2013-2-14,32,24,5,27,13,-9,81,63,43,30.26,29.65,13,3,13,0.04
2013-2-15,19,7,-1,0,-7,-12,63,54,41,30.38,30.26,11,4,11,0.00
2013-2-16,26,11,-2,6,-1,-12,65,56,40,30.32,30.12,7,3,7,0.01
2013-2-17,37,24,7,22,12,-4,69,61,50,30.13,29.64,19,6,19,0.00
2013-2-18,33,20,2,26,10,-8,76,64,53,29.92,29.58,24,9,24,0.00
2013-2-19,4,-2,-13,-8,-18,-27,61,47,37,30.43,29.92,20,9,20,0.00
2013-2-20,17,0,-16,-5,-17,-30,57,45,29,30.49,30.41,8,2,8,0.00
2013-2-21,24,11,-8,7,-2,-19,62,53,43,30.44,30.09,14,5,14,0.00
2013-2-22,34,22,15,19,12,7,75,66,51,30.09,29.93,14,4,14,0.12
2013-2-23,29,14,-3,13,3,-15,70,61,45,30.01,29.92,9,3,9,0.00
2013-2-24,40,16,-7,18,2,-18,67,53,34,30.15,30.00,5,1,6,0.00
2013-2-25,39,24,8,22,12,-2,72,61,46,30.16,30.07,8,2,8,0.00
2013-2-26,38,22,8,24,12,-2,73,65,53,30.11,29.94,9,3,9,0.00
2013-2-27,45,28,18,25,17,8,72,62,45,30.10,29.93,17,4,17,0.00
2013-2-28,33,27,17,20,16,8,72,62,54,30.26,30.10,8,3,8,0.00
2013-3-1,35,22,6,15,9,-4,68,58,42,30.40,30.25,10,3,10,0.00
2013-3-2,36,16,-3,13,2,-14,67,54,36,30.39,30.20,7,2,7,0.00
2013-3-3,38,27,15,16,8,2,62,46,25,30.20,30.00,12,4,12,0.00
2013-3-4,28,24,22,17,16,8,75,69,46,30.06,29.95,17,6,17,0.00
2013-3-5,36,25,12,21,16,4,75,69,52,30.35,30.00,9,3,9,0.21
2013-3-6,32,21,7,16,10,-3,75,63,49,30.46,30.35,8,2,8,0.02
2013-3-7,37,17,-3,16,3,-13,67,54,41,30.41,30.31,8,2,8,0.00
2013-3-8,46,29,13,26,18,5,72,64,45,30.33,30.12,10,4,10,0.00
2013-3-9,39,35,33,33,29,26,80,78,73,30.10,29.75,8,3,8,0.65
2013-3-10,33,32,27,27,23,17,80,71,65,30.01,29.84,13,7,13,0.02
2013-3-11,32,26,18,18,15,8,68,63,55,29.94,29.83,11,5,11,0.00
2013-3-12,30,23,19,17,11,7,69,58,50,30.22,29.89,15,8,15,0.00
2013-3-13,31,21,5,16,8,-5,67,58,48,30.44,30.22,10,4,10,0.00
2013-3-14,49,32,21,26,19,13,75,61,37,30.28,30.07,12,3,12,0.06
2013-3-15,37,31,22,28,23,14,78,74,67,30.06,29.85,11,4,11,0.05
2013-3-16,28,21,8,18,8,-6,75,58,38,30.30,29.95,11,5,11,0.01
2013-3-17,34,18,4,19,3,-8,68,52,40,30.31,29.87,16,5,16,0.00
2013-3-18,30,21,9,25,11,-3,80,65,49,29.94,29.67,29,12,29,0.00
2013-3-19,22,11,3,0,-5,-9,60,48,31,30.28,29.94,21,10,21,0.00
2013-3-20,21,11,2,1,-6,-11,57,47,33,30.31,30.19,22,8,22,0.00
2013-3-21,35,12,-7,5,-6,-18,61,45,25,30.19,30.10,8,2,8,0.00
2013-3-22,37,18,-2,13,2,-14,66,50,25,30.16,30.10,8,2,8,0.00
2013-3-23,40,22,7,18,9,-3,68,58,36,30.22,30.13,8,3,8,0.00
2013-3-24,38,28,21,22,17,12,72,62,44,30.17,30.03,12,4,14,0.00
2013-3-25,44,30,20,21,16,11,72,56,35,30.30,30.10,12,4,12,0.00
2013-3-26,41,24,11,22,11,2,69,59,45,30.37,30.30,10,4,10,0.00
2013-3-27,51,34,10,24,16,0,75,51,28,30.39,30.34,8,2,9,0.00
2013-3-28,52,33,17,30,21,8,74,61,42,30.38,30.30,8,2,8,0.00
2013-3-29,58,42,29,40,31,22,75,64,47,30.32,30.10,12,3,12,0.00
2013-3-30,45,40,32,36,31,25,78,73,63,30.10,29.95,14,6,14,0.01
2013-3-31,39,32,21,26,20,8,79,61,39,30.18,29.89,22,9,22,0.00
2013-4-1,36,25,16,15,9,4,61,51,39,30.34,30.18,15,6,15,0.00
2013-4-2,36,30,17,17,12,7,70,49,37,30.39,30.31,10,5,10,0.00
2013-4-3,36,36,36,13,13,13,37,37,37,30.39,30.39,7,7,9,0.00
2013-4-4,36,36,36,13,13,13,37,37,37,30.39,30.39,7,7,9,0.00
2013-4-5,36,36,36,13,13,13,37,37,37,30.39,30.39,7,7,9,0.00
2013-4-6,36,36,36,13,13,13,37,37,37,30.39,30.39,7,7,9,0.00
2013-4-7,36,36,36,13,13,13,37,37,37,30.39,30.39,7,7,9,0.00
2013-4-8,36,36,36,13,13,13,37,37,37,30.39,30.39,7,7,9,0.00
2013-4-9,36,36,36,13,13,13,37,37,37,30.39,30.39,7,7,9,0.00
2013-4-10,36,36,36,13,13,13,37,37,37,30.39,30.39,7,7,9,0.00
2013-4-11,36,36,36,13,13,13,37,37,37,30.39,30.39,7,7,9,0.00
2013-4-12,41,34,22,26,18,13,77,55,37,30.39,29.92,8,6,9,4.85
2013-4-13,44,32,25,25,21,15,77,64,45,30.04,29.94,11,4,11,0.01
2013-4-14,36,32,29,29,25,21,76,73,67,30.01,29.54,21,10,21,0.35
2013-4-15,42,35,31,29,25,21,72,66,59,30.10,29.62,27,10,27,0.01
2013-4-16,50,36,30,29,24,21,72,62,43,30.40,30.09,14,4,14,0.00
2013-4-17,41,36,32,31,27,24,77,69,63,30.40,30.01,13,4,13,0.24
2013-4-18,33,32,30,27,25,24,79,77,75,30.03,29.67,11,1,12,0.04
2013-4-19,43,34,27,26,22,13,79,62,43,30.11,29.66,16,4,16,0.37
2013-4-20,48,32,14,23,13,6,74,49,21,30.38,30.11,10,3,10,0.00
2013-4-21,52,41,32,41,32,23,78,71,57,30.38,30.10,22,5,22,0.18
2013-4-22,43,35,30,31,27,24,77,72,61,30.30,30.20,14,3,14,0.14
2013-4-23,44,34,23,26,21,15,78,61,36,30.29,30.18,14,3,14,0.24
2013-4-24,51,37,26,33,24,18,76,62,34,30.18,30.02,25,7,25,0.02
2013-4-25,56,40,28,33,26,19,73,58,31,30.31,30.12,15,4,15,0.00
2013-4-26,76,57,43,47,38,32,74,52,25,30.24,30.04,17,5,17,0.01
2013-4-27,79,59,34,46,36,26,88,50,16,30.25,30.00,14,3,15,0.00
2013-4-28,85,65,49,50,46,42,76,54,26,30.00,29.75,24,8,24,0.01
2013-4-29,80,60,45,52,44,38,82,59,31,29.94,29.64,14,3,14,0.00
2013-4-30,70,63,52,55,43,22,72,51,17,30.10,29.52,19,6,19,0.00
2013-5-1,53,39,32,37,31,27,84,74,54,30.56,30.09,13,3,13,0.52
2013-5-2,51,40,33,31,27,23,72,60,43,30.64,30.51,16,6,16,0.00
2013-5-3,42,35,30,31,26,22,79,70,60,30.51,30.23,17,6,17,0.06
2013-5-4,44,38,32,38,32,27,84,81,77,30.27,30.19,14,5,14,0.04
2013-5-5,71,50,37,50,40,33,85,71,46,30.27,30.18,10,3,10,0.00
2013-5-6,80,59,41,51,44,37,86,62,29,30.22,30.12,11,2,11,0.00
2013-5-7,81,62,44,52,46,40,88,58,25,30.19,30.06,17,3,17,0.00
2013-5-8,74,64,55,54,50,44,83,62,44,30.11,30.06,12,3,12,0.01
2013-5-9,68,55,44,55,46,30,83,73,59,30.21,30.07,17,6,17,0.04
2013-5-10,74,54,35,38,27,14,70,42,11,30.22,30.00,11,4,11,0.00
2013-5-11,59,48,35,42,26,14,68,44,21,30.29,30.01,24,7,24,0.00
2013-5-12,65,45,25,29,21,14,76,44,16,30.34,30.19,13,3,17,0.00
2013-5-13,86,59,34,51,35,22,71,44,25,30.21,29.77,24,5,24,0.00
2013-5-14,101,75,48,57,43,22,76,39,11,29.84,29.59,19,6,22,0.00
2013-5-15,83,65,44,49,45,37,77,51,30,30.06,29.84,15,4,15,0.01
2013-5-16,88,70,47,52,44,31,78,43,21,30.03,29.94,14,4,14,0.00
2013-5-17,68,58,55,54,50,38,86,73,34,30.08,30.00,12,6,12,0.40
2013-5-18,87,70,57,65,59,53,88,70,47,30.09,29.88,17,4,17,1.46
2013-5-19,79,68,62,64,60,58,87,76,57,29.89,29.66,22,4,22,0.91
2013-5-20,74,65,58,59,56,54,87,73,53,29.69,29.62,19,6,19,0.05
2013-5-21,68,58,49,55,51,46,88,79,61,29.82,29.61,11,3,11,0.08
2013-5-22,53,49,45,48,44,41,88,83,67,30.10,29.81,14,5,14,0.32
2013-5-23,71,56,42,42,39,35,82,57,27,30.38,30.10,14,4,14,0.00
2013-5-24,71,55,36,48,40,29,80,60,32,30.46,30.25,12,3,12,0.12
2013-5-25,58,54,52,49,46,43,82,73,67,30.34,30.28,9,3,9,0.02
2013-5-26,55,52,49,47,44,41,81,75,72,30.30,30.11,10,4,10,0.01
2013-5-27,62,56,53,52,49,46,84,77,68,30.13,29.94,10,6,10,0.02
2013-5-28,66,59,52,55,52,48,86,78,67,29.93,29.83,7,2,7,0.02
2013-5-29,58,53,52,52,48,48,85,84,81,29.91,29.87,2,1,2,0.00
2013-5-30,74,68,64,61,59,55,83,72,60,29.91,29.77,23,7,23,0.27
2013-5-31,74,66,58,58,52,49,77,61,45,29.83,29.77,27,8,27,0.00
2013-6-1,76,60,51,57,50,41,82,69,49,30.23,29.82,11,3,11,0.01
2013-6-2,73,58,45,45,42,37,79,57,31,30.35,30.23,11,2,11,0.00
2013-6-3,76,60,42,51,43,38,87,57,30,30.32,30.15,8,2,11,0.01
2013-6-4,63,59,54,52,48,45,77,68,56,30.31,30.22,17,4,17,0.04
2013-6-5,56,55,53,49,48,46,82,78,74,30.30,30.24,6,2,7,0.00
2013-6-6,56,56,56,49,49,49,78,78,78,30.25,30.25,2,2,3,0.00
2013-6-7,56,56,56,49,49,49,78,78,78,30.25,30.25,2,2,3,0.00
2013-6-8,56,56,56,49,49,49,78,78,78,30.25,30.25,2,2,3,0.00
2013-6-9,63,56,32,56,49,21,80,78,63,30.25,29.92,4,2,4,0.60
2013-6-10,78,67,58,60,56,53,85,70,53,29.98,29.91,10,2,10,0.00
2013-6-11,87,69,56,66,59,51,86,72,47,30.01,29.91,8,2,8,0.00
2013-6-12,70,65,59,63,59,54,90,81,68,29.99,29.88,12,3,12,2.53
2013-6-13,88,69,54,59,54,46,82,62,34,30.20,30.06,5,1,5,0.00
2013-6-14,82,70,56,61,56,51,85,64,47,30.18,29.97,18,4,18,0.00
2013-6-15,85,71,61,65,60,55,84,70,48,30.04,29.96,21,2,21,0.46
2013-6-16,92,72,54,58,54,48,87,58,24,30.05,29.97,12,2,12,0.00
2013-6-17,88,72,57,59,55,50,79,57,35,30.10,29.99,13,3,13,0.00
2013-6-18,84,68,55,60,55,49,82,63,41,30.19,30.10,7,2,8,0.07
2013-6-19,89,73,57,63,57,52,84,59,35,30.15,30.03,11,2,11,0.00
2013-6-20,91,80,69,65,61,57,67,53,41,30.09,29.96,16,4,16,0.00
2013-6-21,87,74,64,68,62,58,85,68,52,30.12,29.88,22,4,22,1.36
2013-6-22,88,72,63,68,63,58,86,74,51,30.09,29.93,9,2,9,0.70
2013-6-23,84,74,66,66,63,60,86,71,51,30.00,29.80,20,5,20,0.93
2013-6-24,75,67,63,63,61,58,86,81,65,30.01,29.90,9,1,9,0.00
2013-6-25,90,75,64,70,63,58,83,67,50,29.93,29.82,10,3,10,0.00
2013-6-26,90,77,70,68,64,61,84,66,43,29.95,29.77,10,2,10,0.00
2013-6-27,90,78,69,65,61,56,79,56,34,29.98,29.92,16,3,21,0.00
2013-6-28,83,73,65,62,58,55,71,59,46,29.96,29.90,14,4,14,0.00
2013-6-29,83,70,62,60,57,6,83,64,43,30.10,29.88,17,3,17,0.18
2013-6-30,86,70,55,58,53,48,79,57,33,30.23,30.10,9,2,14,0.00
2013-7-1,90,74,60,62,56,51,78,57,29,30.29,30.22,7,1,7,0.00
2013-7-2,88,72,59,58,54,49,78,56,32,30.26,30.19,8,1,8,0.00
2013-7-3,90,79,63,58,54,49,68,45,25,30.14,30.05,8,2,8,0.00
2013-7-4,90,76,63,62,56,52,73,51,31,30.06,29.87,17,5,17,0.00
2013-7-5,90,78,68,65,59,54,63,53,41,30.00,29.90,18,7,18,0.00
2013-7-6,93,80,72,69,62,58,61,54,43,29.98,29.90,15,5,16,0.00
2013-7-7,97,80,68,71,66,62,87,62,42,30.01,29.93,12,3,13,0.59
2013-7-8,96,77,67,72,67,63,89,73,43,30.11,30.00,5,1,8,0.00
2013-7-9,87,77,67,69,66,61,87,70,53,30.06,29.85,21,4,21,0.34
2013-7-10,88,72,59,62,58,53,85,63,36,30.18,30.06,9,2,9,0.00
2013-7-11,88,73,57,66,58,54,89,62,37,30.21,30.07,15,3,15,0.00
2013-7-12,91,78,67,64,60,55,66,54,41,30.10,29.99,20,8,21,0.00
2013-7-13,78,71,65,67,61,57,84,70,56,30.17,30.00,21,5,21,0.15
2013-7-14,89,75,68,67,62,57,83,65,46,30.28,30.13,12,4,14,0.00
2013-7-15,92,78,67,68,64,60,81,63,43,30.33,30.25,14,3,14,0.00
2013-7-16,93,81,72,70,68,65,81,65,45,30.32,30.26,14,4,14,0.00
2013-7-17,96,83,69,71,68,63,84,62,43,30.35,30.22,11,3,11,0.00
2013-7-18,94,84,72,70,68,66,80,60,44,30.21,29.89,20,6,21,0.00
2013-7-19,89,79,66,68,64,59,82,61,40,30.02,29.85,16,3,16,0.04
2013-7-20,88,72,61,64,60,56,86,66,43,30.06,29.99,7,1,7,0.00
2013-7-21,89,74,63,68,61,52,85,64,46,30.04,29.89,12,2,12,0.00
2013-7-22,89,75,63,70,62,53,85,66,44,29.98,29.80,13,4,13,0.00
2013-7-23,86,69,55,58,54,51,87,63,36,30.12,29.97,8,2,9,0.00
2013-7-24,88,69,55,59,55,51,87,65,36,30.18,30.08,10,2,10,0.00
2013-7-25,88,72,62,68,60,53,79,65,39,30.12,30.03,11,3,11,0.15
2013-7-26,75,63,50,61,53,45,88,70,46,30.20,30.02,12,3,12,0.04
2013-7-27,71,58,45,50,46,41,90,67,45,30.20,30.05,12,2,12,0.00
2013-7-28,83,61,45,55,48,41,87,65,34,30.18,30.08,11,2,11,0.00
2013-7-29,81,65,48,58,53,45,90,67,41,30.22,30.16,10,2,10,0.01
2013-7-30,75,66,60,62,58,54,86,75,63,30.20,30.15,5,1,5,0.09
2013-7-31,84,67,56,65,58,52,91,75,43,30.20,30.11,12,2,12,0.12
2013-8-1,88,68,52,63,55,48,89,66,36,30.16,29.98,9,2,9,0.00
2013-8-2,86,67,54,62,54,49,89,66,34,30.16,29.97,7,1,7,0.00
2013-8-3,88,66,50,62,52,47,90,65,29,30.31,30.16,10,1,10,0.00
2013-8-4,81,63,48,59,53,44,89,72,45,30.33,30.09,7,1,7,0.00
2013-8-5,89,69,59,67,60,52,91,75,46,30.14,29.91,10,2,11,0.31
2013-8-6,87,69,54,66,59,51,91,72,47,29.97,29.81,14,3,14,0.00
2013-8-7,85,68,55,58,55,50,90,67,36,30.14,29.91,8,2,8,0.00
2013-8-8,77,62,52,60,54,48,88,78,54,30.17,30.09,8,1,11,0.12
2013-8-9,82,66,53,62,54,50,92,68,37,30.24,30.11,11,2,11,0.00
2013-8-10,84,66,52,59,55,49,90,68,41,30.30,30.18,6,1,8,0.00
2013-8-11,89,71,63,65,60,55,87,70,43,30.19,30.10,6,1,6,0.00
2013-8-12,85,70,55,63,57,52,90,67,38,30.17,30.12,17,1,17,0.00
2013-8-13,85,66,52,59,51,47,89,64,31,30.30,30.17,9,1,9,0.00
2013-8-14,80,64,49,62,50,46,89,64,34,30.31,30.21,10,2,11,0.00
2013-8-15,83,66,53,60,53,47,86,66,37,30.24,30.18,9,2,10,0.00
2013-8-16,82,66,51,59,53,48,90,68,40,30.31,30.23,13,2,13,0.00
2013-8-17,84,68,53,60,54,49,88,64,42,30.30,30.21,16,4,16,0.00
2013-8-18,83,70,56,60,55,50,83,61,41,30.24,30.11,21,4,21,0.00
2013-8-19,88,75,63,68,62,55,77,64,49,30.15,29.99,14,5,14,0.00
2013-8-20,90,78,69,70,66,62,81,67,52,30.02,29.96,14,4,14,0.00
2013-8-21,91,77,69,73,68,63,87,75,54,30.10,29.94,11,3,11,0.24
2013-8-22,94,76,60,66,58,53,86,57,33,30.22,30.10,11,2,11,0.00
2013-8-23,88,72,55,68,61,51,88,70,50,30.23,30.13,11,3,11,0.00
2013-8-24,89,79,71,69,66,63,79,66,50,30.15,30.02,24,8,24,0.00
2013-8-25,96,84,74,73,70,66,78,64,47,30.10,30.04,18,7,18,0.00
2013-8-26,96,84,73,74,71,67,86,67,48,30.09,29.94,14,4,14,0.00
2013-8-27,101,84,72,76,71,67,84,67,44,30.03,29.91,9,2,9,0.00
2013-8-28,97,80,66,73,69,63,90,72,46,30.11,30.02,8,1,8,0.00
2013-8-29,94,82,73,72,69,65,89,67,44,30.10,29.96,14,4,14,0.00
2013-8-30,91,77,64,69,65,60,87,69,43,30.04,29.95,11,2,11,0.00
2013-8-31,91,73,58,67,62,56,91,72,43,30.01,29.85,10,2,10,0.07
2013-9-1,77,67,56,62,58,52,90,75,54,30.11,29.88,12,2,12,0.01
2013-9-2,80,58,47,56,49,44,93,75,42,30.21,30.10,6,1,8,0.00
2013-9-3,85,61,43,62,52,40,93,74,43,30.19,30.11,8,2,8,0.00
2013-9-4,95,73,55,70,61,52,90,70,44,30.24,30.12,6,1,6,0.00
2013-9-5,95,74,58,69,61,54,85,67,44,30.30,30.19,8,2,8,0.00
2013-9-6,93,79,69,69,66,64,87,66,43,30.19,29.96,17,5,17,0.08
2013-9-7,99,80,66,71,66,62,88,65,37,30.09,29.96,10,2,10,0.00
2013-9-8,83,71,64,66,62,58,83,73,57,30.13,29.97,10,3,10,0.00
2013-9-9,97,78,67,70,66,62,88,69,41,29.98,29.75,19,5,19,0.00
2013-9-10,84,72,63,65,62,58,89,74,50,30.10,29.90,11,2,11,0.02
2013-9-11,92,72,57,62,56,48,90,62,25,30.19,30.10,11,2,11,0.00
2013-9-12,83,63,48,55,48,43,89,62,26,30.33,30.19,12,2,12,0.00
2013-9-13,83,58,41,51,43,38,90,64,24,30.37,30.18,8,1,8,0.00
2013-9-14,73,58,47,54,47,41,92,70,42,30.19,29.96,14,4,17,0.43
2013-9-15,75,58,46,55,52,43,92,79,48,30.41,29.97,11,2,11,0.30
2013-9-16,76,53,38,52,44,36,93,74,43,30.49,30.33,9,2,9,0.00
2013-9-17,67,56,48,56,49,43,89,79,61,30.34,30.03,18,4,18,0.01
2013-9-18,86,70,59,69,63,56,93,80,55,30.03,29.79,12,4,12,0.05
2013-9-19,82,70,60,66,62,50,90,76,54,29.95,29.75,18,3,18,0.27
2013-9-20,67,57,46,52,48,41,85,73,52,30.06,29.94,16,4,16,0.00
2013-9-21,79,54,40,52,43,38,90,71,34,30.11,30.00,9,1,9,0.00
2013-9-22,82,61,43,56,49,40,91,67,41,30.04,29.91,17,4,17,0.00
2013-9-23,80,64,53,54,50,46,77,61,37,30.03,29.94,19,5,19,0.00
2013-9-24,86,61,47,59,50,44,88,70,38,30.06,30.01,9,2,9,0.00
2013-9-25,81,62,46,55,50,44,92,69,37,30.06,29.94,16,2,16,0.00
2013-9-26,86,69,53,61,55,48,82,61,43,29.99,29.89,22,5,22,0.00
2013-9-27,86,74,67,63,59,57,76,60,44,29.99,29.87,22,7,22,0.02
2013-9-28,73,60,45,61,51,40,89,72,52,30.05,29.74,18,6,18,0.22
2013-9-29,84,61,42,48,42,38,84,56,22,30.06,29.88,17,5,17,0.00
2013-9-30,85,68,57,54,49,44,67,51,31,29.89,29.69,21,8,24,0.00
2013-10-1,82,65,44,52,42,23,76,48,12,30.10,29.69,16,4,16,0.00
2013-10-2,83,59,39,55,42,35,92,61,20,30.13,29.91,19,3,19,0.89
2013-10-3,62,58,55,58,55,52,94,88,78,30.03,29.92,9,3,9,0.02
2013-10-4,58,56,54,55,52,50,92,88,80,30.05,29.86,14,5,14,0.26
2013-10-5,60,51,39,57,44,35,91,77,57,29.95,29.84,14,3,14,0.01
2013-10-6,55,44,38,49,40,35,90,86,75,29.85,29.79,8,1,8,0.04
2013-10-7,83,55,39,47,41,36,91,65,25,30.06,29.94,6,2,6,0.01
2013-10-8,80,66,50,47,45,40,74,49,28,30.05,29.90,17,7,17,0.00
2013-10-9,82,64,55,53,48,45,72,57,30,30.12,30.02,17,5,17,0.00
2013-10-10,83,65,52,56,48,43,72,57,34,30.13,29.94,18,4,18,0.00
2013-10-11,73,65,53,58,52,45,83,65,51,29.95,29.70,30,8,30,0.25
2013-10-12,63,50,38,45,38,32,81,67,33,30.29,29.84,27,6,27,0.00
2013-10-13,73,47,30,42,32,25,88,63,20,30.51,30.30,7,1,10,0.00
2013-10-14,55,46,37,46,38,32,91,74,52,30.47,29.97,15,4,15,0.77
2013-10-15,53,49,44,50,45,41,91,87,82,29.97,29.74,15,4,15,0.18
2013-10-16,61,46,33,42,37,28,89,74,35,30.06,29.95,13,2,13,0.01
2013-10-17,62,44,37,43,37,32,86,75,44,29.98,29.88,11,3,11,0.05
2013-10-18,57,44,34,37,33,27,87,69,35,30.08,29.94,13,3,13,0.04
2013-10-19,52,38,27,40,29,20,83,73,47,29.94,29.80,15,4,15,0.01
2013-10-20,49,37,27,40,30,21,82,76,64,29.99,29.69,14,3,14,0.04
2013-10-21,45,33,23,26,21,16,77,62,43,30.06,30.00,17,4,18,0.00
2013-10-22,46,32,21,32,24,15,80,70,54,30.12,30.04,8,2,8,0.00
2013-10-23,43,34,26,27,23,18,80,64,43,30.19,30.08,11,2,11,0.00
2013-10-24,50,35,24,32,24,16,78,65,46,30.39,30.19,11,2,11,0.00
2013-10-25,62,41,22,41,29,16,78,65,44,30.40,29.89,28,7,28,0.00
2013-10-26,54,41,26,39,28,19,76,62,40,30.21,29.92,14,4,14,0.00
2013-10-27,70,42,27,36,28,19,79,60,24,30.20,29.90,14,5,16,0.00
2013-10-28,50,37,28,28,24,17,78,59,35,30.48,30.21,14,4,14,0.00
2013-10-29,44,37,29,34,28,20,86,69,63,30.46,30.14,11,4,11,0.00
2013-10-30,51,45,38,47,42,35,93,90,87,30.14,29.77,12,2,12,0.13
2013-10-31,47,40,37,45,36,34,93,88,82,29.77,29.52,11,4,11,0.02
2013-11-1,54,43,36,40,36,30,89,76,54,29.96,29.54,13,4,13,0.01
2013-11-2,55,40,29,37,32,25,87,72,48,30.17,29.96,11,2,11,0.00
2013-11-3,58,46,35,36,32,28,78,60,35,30.17,29.92,24,8,24,0.00
2013-11-4,51,42,27,41,34,22,85,73,58,30.24,29.88,21,6,21,0.11
2013-11-5,44,32,23,35,26,18,87,78,60,30.30,30.10,13,1,13,0.00
2013-11-6,40,31,25,28,24,19,87,75,57,30.25,30.11,10,2,10,0.34
2013-11-7,41,28,18,30,21,11,80,75,64,30.33,30.23,14,4,14,0.00
2013-11-8,46,36,21,37,27,15,79,70,53,30.27,29.69,18,5,18,0.00
2013-11-9,44,40,34,37,31,23,81,71,58,30.32,29.74,24,8,24,0.00
2013-11-10,40,35,27,29,26,19,78,69,64,30.41,30.17,15,4,15,0.00
2013-11-11,36,24,12,28,11,1,75,58,37,30.79,30.19,13,4,13,0.00
2013-11-12,33,18,6,11,5,-3,69,56,26,30.84,30.49,12,4,12,0.00
2013-11-13,57,35,20,35,22,9,71,59,42,30.49,29.96,21,8,21,0.00
2013-11-14,61,39,25,41,29,19,77,70,46,29.96,29.85,12,4,12,0.00
2013-11-15,60,41,25,40,31,18,83,69,46,29.92,29.70,16,4,16,0.00
2013-11-16,50,44,38,46,39,33,88,82,71,29.70,29.32,17,4,17,0.09
2013-11-17,47,38,31,37,32,22,85,77,65,29.95,29.41,21,7,21,0.00
2013-11-18,40,29,19,24,18,11,76,65,46,30.32,29.96,19,6,19,0.00
2013-11-19,51,37,19,31,24,11,76,61,44,30.31,29.95,27,9,27,0.00
2013-11-20,47,42,36,32,29,25,78,61,48,30.10,29.92,21,7,21,0.00
2013-11-21,37,28,21,30,18,10,79,69,58,30.59,30.09,13,5,13,0.00
2013-11-22,39,21,6,11,3,-6,70,49,20,30.70,30.52,17,6,17,0.00
2013-11-23,23,9,1,-1,-6,-11,62,50,28,30.90,30.70,12,3,12,0.00
2013-11-24,36,20,2,14,4,-8,63,50,33,30.75,30.06,27,10,27,0.00
2013-11-25,43,33,26,26,20,11,72,57,44,30.17,30.00,19,8,19,0.00
2013-11-26,29,20,8,17,2,-5,61,46,28,30.44,30.17,21,6,21,0.00
2013-11-27,28,14,0,9,0,-10,66,52,31,30.45,30.11,14,3,14,0.00
2013-11-28,32,20,5,13,5,-5,63,52,33,30.56,30.11,12,2,12,0.00
2013-11-29,34,21,3,16,8,-6,68,57,43,30.56,30.17,19,5,23,0.00
2013-11-30,41,30,21,26,19,14,74,64,55,30.24,30.09,8,3,8,0.00
2013-12-1,39,24,13,25,15,5,75,68,51,30.25,29.98,4,1,4,0.00
2013-12-2,38,33,26,30,26,18,80,73,64,29.97,29.63,13,3,13,0.13
2013-12-3,34,32,29,29,27,24,84,82,80,29.84,29.65,8,1,8,0.05
2013-12-4,32,26,8,27,20,-1,84,78,64,29.85,29.58,8,0,8,0.00
2013-12-5,9,3,-9,-1,-9,-22,66,57,45,30.41,29.85,0,0,0,0.00
2013-12-6,5,-8,-19,-13,-23,-33,57,49,36,30.69,30.41,0,0,0,0.00
2013-12-7,4,-10,-20,-16,-26,-35,57,45,32,30.76,30.59,0,0,0,0.00
2013-12-8,15,6,-5,5,-4,-17,69,63,54,30.58,30.09,0,0,0,0.00
2013-12-9,7,-3,-9,-2,-16,-21,66,52,34,30.20,29.90,0,0,0,0.00
2013-12-10,15,7,-2,6,-5,-14,69,56,41,30.37,29.83,15,2,15,0.01
2013-12-11,4,-4,-14,-11,-20,-28,52,45,29,30.62,30.32,11,5,11,0.00
2013-12-12,24,10,0,8,-2,-13,66,57,44,30.35,30.17,11,2,11,0.00
2013-12-13,18,12,8,4,2,-2,68,61,51,30.32,30.16,16,5,16,0.00
2013-12-14,19,8,-2,2,-4,-16,64,57,42,30.32,30.17,13,4,13,0.00
2013-12-15,13,2,-2,-10,-15,-21,56,44,25,30.22,30.15,8,3,8,0.00
2013-12-16,25,12,2,17,1,-10,75,63,56,30.16,30.00,13,4,13,0.00
2013-12-17,32,21,0,24,10,-10,74,62,46,30.18,29.98,20,7,20,0.00
2013-12-18,41,24,1,26,13,-10,77,63,51,30.13,29.72,15,4,15,0.12
2013-12-19,26,16,13,16,5,1,71,62,50,30.13,29.88,17,4,17,0.00
2013-12-20,18,14,10,6,4,0,68,64,56,30.08,29.92,10,3,10,0.00
2013-12-21,27,16,13,10,6,4,68,63,46,30.06,29.91,8,3,8,0.00
2013-12-22,15,12,9,6,2,-2,67,64,57,30.13,30.01,11,4,11,0.00
2013-12-23,2,-8,-19,-20,-26,-34,46,40,31,30.57,30.49,14,4,14,0.00
2013-12-24,10,-2,-21,0,-18,-36,64,48,27,30.54,30.17,15,5,15,0.00
2013-12-25,31,17,7,22,8,-4,76,65,47,30.23,30.11,17,5,17,0.01
2013-12-26,32,20,7,20,11,-3,75,66,59,30.23,30.11,6,1,6,0.01
2013-12-27,42,29,8,29,20,-2,77,70,57,30.22,29.99,14,5,17,0.02
2013-12-28,47,30,16,30,21,7,78,70,52,30.11,29.72,17,5,17,0.01
2013-12-29,16,-4,-21,7,-21,-36,67,43,23,30.41,30.11,14,5,14,0.00
2013-12-30,6,-8,-20,-8,-21,-36,58,51,43,30.34,30.18,8,2,8,0.00
2013-12-31,4,-8,-20,-13,-22,-34,56,48,41,30.43,30.26,7,2,7,0.00
2014-1-1,3,-4,-9,-15,-20,-25,48,44,34,30.51,30.41,8,3,8,0.00
2014-1-2,8,-9,-22,-17,-28,-42,50,38,22,30.55,30.41,5,1,6,0.00